Relevés horaires St-Hubert (Belgique)


Relevés horaires à St-Hubert - Mercredi 18 Juill. 2018
Heure UTC1 Température [°C] Vent [km/h] Hum. [%] Pres.4 [hPa] Visi. [Km] Nébu. [octa] Préc.5 [mm] Cond.
2m. Res. Ros. Dir.2 Vit. Moy. Raf.3
23:00 14.6 14.6 8.6 NNO 0.0 0.0 0.0 67 1019.7(0.8/3h) 45 0/8 -- --
22:00 15.6 15.6 8.4 NNO 0.0 0.0 0.0 62 1019(0.5/3h) 45 0/8 -- --
21:00 17.6 17.6 8.0 NNO 0.0 0.0 0.0 53 1018.4(0.4/3h) 45 0/8 -- --
20:00 18.9 18.9 7.7 NNO 0.0 0.0 0.0 48 1017.8(0.3/3h) 45 0/8 -- --
19:00 20.5 20.5 8.7 NNO 0.0 0.0 0.0 47 1017.3(-0.1/3h) 35 0/8 -- --
18:00 21.9 21.9 7.8 NNO 0.0 0.0 0.0 40 1017(-0.5/3h) 40 0/8 0/12h
--
17:00 22.2 22.2 7.7 NNO 0.0 0.0 0.0 39 1016.8(-0.9/3h) 35 0/8 -- --
16:00 22.8 22.8 9.0 NNO 0.0 0.0 0.0 41 1016.9(-0.8/3h) 30 0/8 -- --
15:00 22.7 22.7 8.6 NNO 0.0 0.0 0.0 41 1017.3(-0.6/3h) 30 0/8 -- --
14:00 21.6 21.6 9.2 NNO 0.0 0.0 0.0 45 1017.8(-0.3/3h) 35 0/8 -- --
13:00 21.2 21.2 8.9 NNO 0.0 0.0 0.0 45 1018(-0.3/3h) 40 0/8 -- --
12:00 20.6 20.6 7.8 NNO 0.0 0.0 0.0 44 1018.4(-0.3/3h) 35 0/8 0/6h
--
11:00 19.9 19.9 8.5 NNO 0.0 0.0 0.0 48 1018.6(0.1/3h) 40 0/8 -- --
10:00 19.4 19.4 8.0 NNO 0.0 0.0 0.0 48 1018.8(0.3/3h) 40 0/8 -- --
09:00 18.4 18.4 6.8 NNO 0.0 0.0 0.0 47 1019.2(0.8/3h) 30 0/8 -- --
08:00 18.1 18.1 7.7 NNO 0.0 0.0 0.0 51 1019.1(0.7/3h) 45 0/8 -- --
07:00 17.1 17.1 7.9 NNO 0.0 0.0 0.0 55 1019(0.5/3h) 45 0/8 -- --
06:00 15.8 15.8 9.2 NNO 0.0 0.0 0.0 65 1018.9(0.2/3h) 45 0/8 0/12h
--
05:00 14.6 14.6 9.5 NNO 0.0 0.0 0.0 71 1019.1(-0.2/3h) 45 1/8 -- --
04:00 13.6 13.6 8.2 NNO 0.0 0.0 0.0 70 1019.3(0.1/3h) 45 2/8 -- --
03:00 13.7 13.7 8.1 NNO 0.0 0.0 0.0 69 1019.1(-0.3/3h) 45 3/8 -- --
02:00 12.3 12.3 8.6 NNO 0.0 0.0 0.0 78 1019.8(0.0/3h) 45 0/8 -- --
01:00 11.9 11.9 8.1 NNO 0.0 0.0 0.0 78 1019.8(0.0/3h) 45 0/8 -- --
00:00 12.7 12.7 8.0 NNO 0.0 0.0 0.0 73 1019.7(0.2/3h) 45 0/8 0/6h
0/24h
--

1 Coordinated Universal Time. Actuellement il est 12:00 locale et 10:00 UTC.

2 Le vent souffle depuis la direction indiquée vers la direction oposée.

3 Les rafales max. sont disponible 40 min après l'heure du relevé.

4 Pour les stations d'altitude (plus de 600m) le géopotentiel du niveau le plus proche de la pression obligatoire est indiqué.

5 Les stations disposant d'un diffuseur peuvent indiquer "trace". Cela signifie que des précipitations ont touchés le sol mais que la quantité est inférieure à 0.1 mm.

Récapitulatif de la journée
Température [°C] Vent [km/h] Ensoleillement4 [h] Precipitations totale5 [mm] Pression [Hpa]
Min1 Max.2 Moy.3 Max. Min Max.
10.8 23.1 0 0.0 0 h 0 min 0 1016.8 1019.8

1 Température minimale relevée entre 18:00 UTC la veille et 18:00 UTC le jour donné.

2 Température maximale relevée entre 06:00 UTC le jour donné et 06:00 UTC le lendemain.

3 Vent moyen de la journée basé sur les relevés horaires.

4 Ensoleillement en heures relevé entre 06:00 UTC la veille et 06:00 UTC le jour donné.

5 Précipitations totales tombées entre 06:00 UTC la jour donné et 06:00 UTC le lendemain.

Graphiques horaires